Tacoma Park, South Dakota
Current Conditions -  °F | °C
As of 8:53 PM on Saturday 25 Oct 2014 (Local Time) from KABR Reporting Station
Clear Clear  
Wind Chill: 37°   Ceiling: Unl
Heat Index: 41°   Visibility: 10mi
Dew Point: 31°   Wind: 6mph
Humidity: 67%   Direction: 110°ESE
Pressure: 30.04"   Gusts: NA
Location:  45.6832°N, 98.2967°W
Report Text: KABR 260153Z AUTO 11005KT 10SM CLR 05/M01 A3004 RMK AO2 SLP183 T00501006
Loading
Personal Weather Stations






























Interactive Weather Map
Tropical Storm Tracking
New forecast layout! Learn more

10-Day Weather Forecast

Advertisements
Track Severe Weather on mobile